Fergus Falls, MN

1:54 AM CDT on August 29, 2015 (GMT -0500)
West Central MN | | Change Station
CLOSE
Current Station
Personal Weather Station
Location: Fergus Falls, MN
Elevation: 1234 ft
Nearby Weather Stations

Elev 1234 ft 46.29 °N, 96.09 °W | Updated 1 minute ago

Clear
Clear
61.9 °F
Feels Like 61.9 °F
N
2.3
Wind Variable Wind from SSE
Gusts 3.4 mph

Today
High -- | Low -- °F
--% Chance of Precip.
Yesterday
High -- | Low -- °F
Precip. -- in
6:40 AM 8:09 PM
Full, 100% visible
Pressure 29.98 in
Visibility 10.0 miles
Clouds Clear
Dew Point 57 °F
Humidity 87%
Rainfall 0.00 in
Snow Depth Not available.
UV 0 out of 12
Pollen 9.90 out of 12
Air Quality Not available.
Flu Activity Not available.
METAR KFFM 290635Z AUTO 18009KT 10SM CLR 17/17 A2998 RMK AO2
Pressure 29.98 in
Visibility 10.0 miles
Clouds Clear
Dew Point 57 °F
Humidity 87%
Rainfall 0.00 in
Snow Depth Not available.
UV 0 out of 12
Pollen 9.90 out of 12
Air Quality Not available.
Flu Activity Not available.
METAR KFFM 290635Z AUTO 18009KT 10SM CLR 17/17 A2998 RMK AO2

10-Day Weather Forecast

×

Almanac

Astronomy

Aug. 29, 2015 Rise Set
Actual Time
Civil Twilight
Nautical Twilight
Astronomical Twilight
Moon
Length of Visible Light
Length of Day
Tomorrow will be .
, % of the Moon is Illuminated

Today's Extremes

State Highs State Lows

Community

WunderPhotos

Upload Photos

1,850,632 photos uploaded!

WunderBlogs® & News

Nearby

Air Quality

  Air Quality AQ Index Pollutant
Not available.

Snow Depth

Station Depth Elevation

Earthquake Activity

City Distance Mag. Time & Date
Minimum magnitude displayed is 2.5.

Coastal Water Temperatures

Place Temperature

Stations

Nearby Weather Stations

Station Location Temp. Windchill Dew Point Humidity Wind Precip. Elev Updated Type